createdAt,value
2023-01-06T00:01:17.255Z,71.26
2023-01-06T00:03:44.278Z,71.30
2023-01-06T00:06:12.462Z,71.48
2023-01-06T00:08:40.483Z,71.42
2023-01-06T00:11:13.797Z,71.40
2023-01-06T00:13:41.620Z,71.36
2023-01-06T00:16:11.958Z,71.37
2023-01-06T00:18:39.115Z,71.31
2023-01-06T00:21:07.275Z,71.05
2023-01-06T00:23:35.199Z,71.34
2023-01-06T00:26:02.556Z,71.20
2023-01-06T00:28:29.345Z,71.41
2023-01-06T00:30:56.287Z,71.20
2023-01-06T00:33:24.320Z,71.24
2023-01-06T00:35:51.635Z,71.36
2023-01-06T00:38:19.586Z,71.33
2023-01-06T00:40:46.340Z,71.34
2023-01-06T00:43:13.120Z,71.42
2023-01-06T00:45:39.900Z,71.39
2023-01-06T00:48:06.701Z,71.30
2023-01-06T00:50:33.486Z,71.37
2023-01-06T00:53:00.232Z,71.19
2023-01-06T00:55:27.332Z,71.43
2023-01-06T00:57:54.188Z,71.27
2023-01-06T01:01:12.626Z,71.60
2023-01-06T01:03:53.892Z,71.57
2023-01-06T01:06:20.933Z,71.60
2023-01-06T01:09:00.617Z,71.60
2023-01-06T01:11:49.391Z,71.70
2023-01-06T01:14:22.187Z,71.34
2023-01-06T01:16:49.250Z,71.53
2023-01-06T01:19:16.348Z,71.57
2023-01-06T01:21:48.695Z,71.61
2023-01-06T01:24:16.005Z,71.56
2023-01-06T01:27:12.166Z,71.58
2023-01-06T01:30:04.563Z,71.46
2023-01-06T01:33:16.894Z,71.51
2023-01-06T01:35:43.761Z,71.65
2023-01-06T01:38:10.527Z,71.65
2023-01-06T01:40:37.300Z,71.66
2023-01-06T01:43:04.112Z,71.89
2023-01-06T01:45:33.269Z,71.65
2023-01-06T01:48:09.314Z,71.89
2023-01-06T01:50:44.045Z,71.83
2023-01-06T01:53:20.587Z,71.89
2023-01-06T01:55:50.840Z,71.77
2023-01-06T01:58:40.492Z,72.09
2023-01-06T02:01:10.041Z,71.84
2023-01-06T02:03:39.054Z,71.97
2023-01-06T02:06:15.080Z,71.87
2023-01-06T02:09:11.075Z,71.95
2023-01-06T02:11:38.866Z,72.01
2023-01-06T02:14:13.613Z,72.10
2023-01-06T02:17:05.124Z,72.10
2023-01-06T02:20:28.305Z,72.11
2023-01-06T02:23:14.656Z,72.28
2023-01-06T02:26:26.277Z,72.37
2023-01-06T02:29:45.322Z,72.35
2023-01-06T02:32:42.653Z,72.34
2023-01-06T02:35:35.418Z,72.42
2023-01-06T02:38:27.049Z,72.34
2023-01-06T02:41:29.109Z,72.46
2023-01-06T02:44:04.650Z,72.33
2023-01-06T02:47:09.205Z,72.46
2023-01-06T02:49:46.687Z,72.56
2023-01-06T02:52:51.033Z,72.47
2023-01-06T02:55:48.740Z,72.59
2023-01-06T02:58:48.020Z,72.53
2023-01-06T03:01:23.517Z,72.59
2023-01-06T03:03:51.628Z,72.53
2023-01-06T03:06:25.359Z,72.49
2023-01-06T03:08:55.477Z,72.37
2023-01-06T03:11:25.020Z,72.32
2023-01-06T03:13:59.657Z,72.38
2023-01-06T03:16:26.488Z,72.71
2023-01-06T03:18:55.374Z,72.48
2023-01-06T03:21:27.207Z,72.62
2023-01-06T03:23:54.037Z,72.49
2023-01-06T03:26:21.136Z,72.71
2023-01-06T03:28:47.897Z,72.72
2023-01-06T03:32:01.426Z,72.50
2023-01-06T03:35:08.614Z,72.73
2023-01-06T03:37:58.517Z,72.72
2023-01-06T03:40:52.741Z,72.59
2023-01-06T03:43:51.817Z,72.78
2023-01-06T03:46:30.721Z,72.69
2023-01-06T03:49:09.326Z,72.64
2023-01-06T03:51:55.667Z,72.71
2023-01-06T03:54:57.712Z,72.73
2023-01-06T03:57:31.743Z,72.74
2023-01-06T04:00:14.680Z,72.80
2023-01-06T04:02:42.108Z,72.42
2023-01-06T04:05:22.680Z,72.49
2023-01-06T04:07:49.749Z,72.77
2023-01-06T04:10:19.649Z,72.70
2023-01-06T04:12:46.459Z,72.75
2023-01-06T04:15:20.073Z,72.65
2023-01-06T04:17:48.055Z,72.71
2023-01-06T04:20:23.515Z,72.72
2023-01-06T04:22:50.527Z,72.75
2023-01-06T04:25:17.344Z,72.70
2023-01-06T04:27:44.208Z,72.47
2023-01-06T04:30:11.884Z,72.47
2023-01-06T04:32:38.908Z,72.45
2023-01-06T04:35:06.255Z,72.50
2023-01-06T04:37:33.963Z,72.47
2023-01-06T04:40:00.734Z,72.49
2023-01-06T04:42:27.524Z,72.45
2023-01-06T04:44:54.259Z,72.42
2023-01-06T04:47:21.012Z,72.58
2023-01-06T04:49:47.778Z,72.47
2023-01-06T04:52:16.030Z,72.53
2023-01-06T04:54:42.814Z,72.39
2023-01-06T04:57:09.586Z,72.43
2023-01-06T04:59:36.384Z,72.56
2023-01-06T05:02:03.245Z,72.38
2023-01-06T05:04:34.222Z,72.38
2023-01-06T05:07:03.888Z,72.42
2023-01-06T05:09:30.647Z,72.53
2023-01-06T05:11:57.400Z,72.33
2023-01-06T05:14:24.140Z,72.33
2023-01-06T05:16:50.925Z,72.47
2023-01-06T05:19:17.686Z,72.30
2023-01-06T05:21:44.461Z,72.28
2023-01-06T05:24:11.345Z,72.31
2023-01-06T05:26:38.150Z,72.19
2023-01-06T05:29:04.900Z,72.29
2023-01-06T05:31:31.738Z,72.40
2023-01-06T05:33:58.504Z,72.00
2023-01-06T05:36:25.292Z,72.26
2023-01-06T05:38:55.588Z,72.03
2023-01-06T05:41:22.877Z,72.07
2023-01-06T05:43:49.679Z,72.10
2023-01-06T05:46:16.490Z,72.09
2023-01-06T05:48:43.282Z,72.19
2023-01-06T05:51:13.923Z,72.06
2023-01-06T05:53:43.435Z,71.91
2023-01-06T05:56:13.589Z,72.12
2023-01-06T05:58:40.469Z,72.13
2023-01-06T06:01:21.942Z,72.10
2023-01-06T06:03:49.986Z,72.19
2023-01-06T06:06:17.835Z,72.29
2023-01-06T06:08:44.798Z,72.08
2023-01-06T06:11:14.545Z,72.17
2023-01-06T06:13:50.246Z,72.02
2023-01-06T06:16:19.548Z,72.35
2023-01-06T06:18:53.505Z,72.12
2023-01-06T06:21:27.601Z,72.03
2023-01-06T06:23:56.740Z,72.08
2023-01-06T06:26:24.433Z,72.10
2023-01-06T06:28:51.542Z,72.38
2023-01-06T06:31:28.574Z,71.98
2023-01-06T06:34:01.352Z,72.20
2023-01-06T06:36:28.991Z,71.95
2023-01-06T06:38:56.431Z,71.77
2023-01-06T06:41:25.154Z,71.79
2023-01-06T06:43:52.329Z,71.86
2023-01-06T06:46:20.391Z,71.72
2023-01-06T06:48:47.313Z,71.77
2023-01-06T06:51:17.156Z,71.63
2023-01-06T06:53:44.874Z,71.42
2023-01-06T06:56:12.745Z,71.71
2023-01-06T06:58:39.619Z,71.48
2023-01-06T07:01:09.129Z,71.49
2023-01-06T07:03:36.214Z,71.20
2023-01-06T07:06:04.916Z,71.47
2023-01-06T07:08:33.220Z,71.32
2023-01-06T07:11:00.694Z,71.27
2023-01-06T07:13:27.760Z,71.37
2023-01-06T07:15:54.730Z,71.18
2023-01-06T07:18:21.618Z,71.28
2023-01-06T07:20:54.205Z,71.28
2023-01-06T07:23:22.070Z,71.18
2023-01-06T07:25:58.191Z,71.05
2023-01-06T07:28:26.044Z,71.18
2023-01-06T07:30:53.106Z,71.17
2023-01-06T07:33:20.689Z,71.01
2023-01-06T07:35:48.105Z,70.95
2023-01-06T07:38:14.965Z,71.17
2023-01-06T07:40:41.758Z,71.03
2023-01-06T07:43:10.957Z,70.91
2023-01-06T07:45:38.136Z,70.96
2023-01-06T07:48:05.699Z,70.96
2023-01-06T07:50:32.755Z,70.69
2023-01-06T07:53:02.944Z,70.86
2023-01-06T07:55:30.413Z,70.56
2023-01-06T07:57:58.545Z,70.54
2023-01-06T08:00:25.792Z,70.58
2023-01-06T08:02:52.794Z,70.41
2023-01-06T08:05:19.567Z,70.56
2023-01-06T08:07:47.196Z,70.52
2023-01-06T08:12:42.550Z,70.57
2023-01-06T08:15:09.612Z,70.41
2023-01-06T08:17:36.415Z,70.29
2023-01-06T08:20:03.435Z,70.10
2023-01-06T08:22:30.263Z,70.10
2023-01-06T08:24:57.034Z,70.07
2023-01-06T08:27:24.122Z,70.01
2023-01-06T08:29:52.178Z,69.98
2023-01-06T08:32:18.938Z,69.79
2023-01-06T08:34:45.698Z,69.80
2023-01-06T08:37:12.525Z,69.87
2023-01-06T08:39:39.302Z,69.92
2023-01-06T08:42:06.182Z,69.86
2023-01-06T08:44:33.051Z,69.92
2023-01-06T08:46:59.842Z,69.85
2023-01-06T08:49:26.626Z,69.90
2023-01-06T08:51:53.491Z,69.75
2023-01-06T08:54:20.395Z,69.62
2023-01-06T08:56:47.216Z,69.48
2023-01-06T08:59:17.989Z,69.39
2023-01-06T09:01:45.036Z,69.35
2023-01-06T09:04:12.902Z,69.21
2023-01-06T09:06:43.241Z,69.10
2023-01-06T09:09:11.845Z,69.04
2023-01-06T09:11:44.790Z,68.92
2023-01-06T09:14:14.040Z,68.94
2023-01-06T09:16:41.385Z,69.01
2023-01-06T09:19:10.249Z,68.83
2023-01-06T09:21:37.701Z,68.81
2023-01-06T09:24:04.873Z,68.88
2023-01-06T09:26:31.649Z,68.91
2023-01-06T09:28:58.666Z,68.82
2023-01-06T09:31:26.651Z,68.60
2023-01-06T09:33:54.020Z,69.19
2023-01-06T09:36:21.261Z,68.95
2023-01-06T09:38:48.054Z,68.95
2023-01-06T09:41:46.739Z,69.28
2023-01-06T09:44:27.891Z,69.09
2023-01-06T09:46:54.971Z,69.20
2023-01-06T09:49:33.888Z,69.24
2023-01-06T09:52:27.376Z,69.68
2023-01-06T09:55:02.706Z,69.42
2023-01-06T09:57:36.984Z,69.33
2023-01-06T10:00:37.465Z,69.59
2023-01-06T10:03:05.762Z,69.74
2023-01-06T10:06:06.887Z,69.75
2023-01-06T10:09:09.000Z,69.69
2023-01-06T10:11:41.371Z,69.73
2023-01-06T10:14:21.405Z,69.75
2023-01-06T10:17:03.251Z,69.69
2023-01-06T10:19:59.958Z,69.83
2023-01-06T10:22:54.324Z,69.78
2023-01-06T10:25:46.241Z,69.83
2023-01-06T10:28:31.942Z,70.03
2023-01-06T10:31:06.283Z,69.92
2023-01-06T10:33:37.343Z,70.37
2023-01-06T10:36:12.211Z,70.07
2023-01-06T10:38:47.980Z,70.26
2023-01-06T10:42:29.421Z,70.19
2023-01-06T10:44:56.214Z,70.01
2023-01-06T10:47:31.067Z,70.27
2023-01-06T10:49:59.434Z,70.07
2023-01-06T10:52:28.732Z,69.93
2023-01-06T10:55:03.676Z,69.86
2023-01-06T10:57:39.733Z,70.05
2023-01-06T11:00:18.394Z,70.32
2023-01-06T11:02:51.681Z,70.33
2023-01-06T11:05:25.855Z,70.41
2023-01-06T11:08:14.895Z,70.50
2023-01-06T11:10:50.650Z,70.45
2023-01-06T11:13:30.755Z,70.58
2023-01-06T11:16:03.180Z,70.48
2023-01-06T11:18:32.591Z,70.74
2023-01-06T11:21:17.865Z,70.76
2023-01-06T11:23:47.782Z,70.60
2023-01-06T11:26:27.870Z,70.83
2023-01-06T11:28:55.619Z,70.93
2023-01-06T11:31:34.025Z,70.88
2023-01-06T11:34:03.959Z,70.77
2023-01-06T11:36:32.858Z,70.91
2023-01-06T11:39:12.720Z,70.98
2023-01-06T11:41:44.478Z,71.39
2023-01-06T11:44:34.877Z,70.99
2023-01-06T11:47:15.324Z,71.04
2023-01-06T11:49:51.946Z,71.14
2023-01-06T11:52:33.174Z,70.99
2023-01-06T11:55:07.546Z,71.24
2023-01-06T11:57:38.498Z,71.57
2023-01-06T12:00:20.335Z,71.19
2023-01-06T12:03:10.790Z,71.25
2023-01-06T12:06:00.471Z,71.20
2023-01-06T12:08:50.433Z,71.15
2023-01-06T12:11:34.544Z,71.00
2023-01-06T12:14:13.311Z,71.36
2023-01-06T12:16:57.623Z,71.08
2023-01-06T12:19:44.074Z,70.69
2023-01-06T12:22:32.615Z,70.57
2023-01-06T12:25:01.674Z,70.27
2023-01-06T12:27:39.345Z,70.12
2023-01-06T12:30:16.519Z,70.17
2023-01-06T12:32:49.148Z,70.08
2023-01-06T12:35:21.503Z,69.69
2023-01-06T12:38:00.050Z,69.47
2023-01-06T12:40:41.463Z,69.35
2023-01-06T12:43:19.765Z,69.48
2023-01-06T12:46:09.700Z,69.34
2023-01-06T12:48:44.974Z,69.06
2023-01-06T12:51:19.665Z,69.13
2023-01-06T12:53:57.723Z,68.93
2023-01-06T12:56:50.565Z,68.64
2023-01-06T12:59:37.394Z,68.49
2023-01-06T13:02:47.937Z,68.75
2023-01-06T13:06:11.122Z,68.93
2023-01-06T13:09:15.632Z,68.78
2023-01-06T13:12:20.472Z,68.81
2023-01-06T13:15:02.244Z,68.47
2023-01-06T13:17:37.705Z,68.08
2023-01-06T13:20:08.430Z,67.63
2023-01-06T13:23:08.967Z,67.96
2023-01-06T13:26:13.597Z,67.82
2023-01-06T13:28:56.802Z,67.71
2023-01-06T13:32:03.392Z,67.24
2023-01-06T13:35:00.944Z,67.34
2023-01-06T13:37:42.388Z,66.91
2023-01-06T13:40:27.025Z,66.83
2023-01-06T13:42:58.545Z,67.43
2023-01-06T13:45:39.478Z,67.13
2023-01-06T13:48:09.040Z,66.48
2023-01-06T13:50:38.368Z,65.79
2023-01-06T13:53:06.788Z,65.38
2023-01-06T13:55:39.066Z,65.17
2023-01-06T13:58:24.203Z,64.95
2023-01-06T14:01:09.239Z,64.93
2023-01-06T14:03:41.345Z,64.85
2023-01-06T14:06:23.419Z,64.64
2023-01-06T14:08:54.316Z,64.84
2023-01-06T14:11:29.822Z,64.76
2023-01-06T14:14:05.762Z,64.53
2023-01-06T14:16:44.878Z,64.73
2023-01-06T14:19:38.726Z,64.54
2023-01-06T14:22:24.107Z,64.92
2023-01-06T14:25:00.917Z,64.70
2023-01-06T14:27:46.106Z,64.58
2023-01-06T14:30:31.907Z,64.62
2023-01-06T14:33:02.938Z,64.76
2023-01-06T14:35:35.917Z,64.59
2023-01-06T14:38:16.439Z,64.41
2023-01-06T14:41:15.904Z,64.60
2023-01-06T14:43:56.351Z,64.41
2023-01-06T14:46:49.510Z,64.29
2023-01-06T14:49:29.973Z,64.19
2023-01-06T14:51:59.258Z,64.00
2023-01-06T14:54:31.549Z,64.12
2023-01-06T14:57:00.963Z,64.20
2023-01-06T14:59:27.957Z,64.19
2023-01-06T15:02:11.761Z,64.21
2023-01-06T15:04:38.679Z,64.22
2023-01-06T15:07:18.416Z,64.21
2023-01-06T15:09:50.478Z,64.15
2023-01-06T15:12:31.361Z,64.31
2023-01-06T15:15:33.947Z,64.15
2023-01-06T15:18:07.950Z,64.45
2023-01-06T15:20:41.965Z,64.50
2023-01-06T15:23:14.692Z,64.39
2023-01-06T15:25:42.727Z,64.53
2023-01-06T15:28:31.274Z,64.65
2023-01-06T15:31:00.292Z,64.72
2023-01-06T15:33:40.142Z,64.72
2023-01-06T15:36:08.143Z,64.90
2023-01-06T15:38:38.417Z,64.78
2023-01-06T15:41:05.789Z,64.65
2023-01-06T15:43:44.518Z,64.78
2023-01-06T15:46:13.277Z,65.01
2023-01-06T15:48:46.948Z,64.92
2023-01-06T15:51:17.538Z,65.25
2023-01-06T15:53:45.796Z,65.21
2023-01-06T15:56:25.284Z,65.12
2023-01-06T15:58:54.780Z,65.28
2023-01-06T16:01:23.704Z,65.31
2023-01-06T16:03:53.231Z,65.33
2023-01-06T16:06:33.842Z,65.38
2023-01-06T16:09:19.260Z,65.53
2023-01-06T16:12:04.453Z,65.59
2023-01-06T16:14:38.444Z,65.79
2023-01-06T16:17:23.761Z,65.76
2023-01-06T16:20:00.730Z,66.00
2023-01-06T16:22:32.145Z,66.13
2023-01-06T16:25:03.728Z,66.28
2023-01-06T16:27:31.182Z,66.21
2023-01-06T16:30:13.299Z,66.12
2023-01-06T16:32:43.659Z,66.43
2023-01-06T16:35:23.301Z,66.49
2023-01-06T16:37:50.845Z,66.32
2023-01-06T16:40:21.534Z,66.47
2023-01-06T16:42:49.130Z,66.42
2023-01-06T16:45:26.466Z,66.08
2023-01-06T16:47:54.927Z,66.40
2023-01-06T16:50:31.054Z,66.50
2023-01-06T16:53:15.597Z,66.17
2023-01-06T16:55:43.314Z,66.34
2023-01-06T16:58:20.607Z,66.33
2023-01-06T17:00:54.088Z,66.31
2023-01-06T17:03:23.975Z,66.49
2023-01-06T17:05:52.748Z,66.31
2023-01-06T17:08:37.134Z,66.16
2023-01-06T17:11:18.801Z,66.27
2023-01-06T17:13:59.975Z,66.19
2023-01-06T17:16:31.556Z,66.31
2023-01-06T17:19:30.028Z,66.41
2023-01-06T17:22:26.438Z,66.38
2023-01-06T17:24:54.153Z,66.19
2023-01-06T17:27:26.662Z,66.28
2023-01-06T17:29:55.676Z,66.08
2023-01-06T17:32:41.737Z,65.98
2023-01-06T17:35:30.027Z,66.23
2023-01-06T17:38:00.875Z,66.24
2023-01-06T17:40:38.322Z,66.32
2023-01-06T17:43:23.796Z,66.16
2023-01-06T17:45:50.923Z,66.16
2023-01-06T17:48:17.931Z,66.16
2023-01-06T17:50:54.148Z,66.01
2023-01-06T17:53:49.467Z,66.12
2023-01-06T17:56:17.713Z,66.33
2023-01-06T17:58:45.593Z,66.53
2023-01-06T18:01:22.311Z,66.53
2023-01-06T18:03:50.423Z,66.55
2023-01-06T18:06:39.468Z,66.38
2023-01-06T18:09:06.122Z,66.53
2023-01-06T18:12:57.395Z,66.57
2023-01-06T18:15:27.178Z,66.71
2023-01-06T18:17:55.958Z,66.71
2023-01-06T18:20:22.994Z,66.86
2023-01-06T18:22:49.781Z,66.93
2023-01-06T18:25:24.463Z,66.54
2023-01-06T18:27:51.613Z,66.75
2023-01-06T18:30:27.736Z,66.62
2023-01-06T18:32:54.863Z,66.88
2023-01-06T18:35:27.688Z,66.88
2023-01-06T18:37:59.722Z,67.20
2023-01-06T18:40:26.753Z,66.81
2023-01-06T18:42:55.127Z,66.90
2023-01-06T18:45:38.999Z,67.22
2023-01-06T18:48:24.852Z,67.28
2023-01-06T18:50:52.469Z,67.13
2023-01-06T18:53:30.070Z,67.13
2023-01-06T18:56:00.939Z,67.35
2023-01-06T18:58:47.034Z,66.96
2023-01-06T19:01:29.934Z,66.92
2023-01-06T19:04:16.391Z,67.13
2023-01-06T19:06:51.528Z,67.03
2023-01-06T19:09:24.431Z,66.89
2023-01-06T19:12:30.288Z,67.21
2023-01-06T19:15:01.513Z,67.13
2023-01-06T19:17:34.055Z,66.87
2023-01-06T19:20:14.521Z,67.49
2023-01-06T19:22:41.558Z,67.00
2023-01-06T19:25:48.127Z,67.01
2023-01-06T19:28:35.530Z,67.10
2023-01-06T19:31:05.362Z,66.96
2023-01-06T19:34:00.908Z,66.81
2023-01-06T19:36:33.150Z,66.94
2023-01-06T19:39:30.150Z,67.12
2023-01-06T19:42:24.438Z,67.09
2023-01-06T19:44:55.287Z,67.45
2023-01-06T19:47:25.691Z,67.22
2023-01-06T19:49:58.540Z,67.59
2023-01-06T19:52:36.213Z,67.44
2023-01-06T19:55:19.108Z,67.50
2023-01-06T19:57:54.569Z,67.39
2023-01-06T20:00:30.370Z,67.40
2023-01-06T20:03:01.942Z,67.28
2023-01-06T20:05:29.848Z,67.47
2023-01-06T20:07:56.629Z,67.38
2023-01-06T20:10:23.473Z,67.37
2023-01-06T20:12:50.261Z,67.23
2023-01-06T20:15:17.390Z,67.21
2023-01-06T20:17:44.246Z,66.96
2023-01-06T20:20:11.450Z,66.96
2023-01-06T20:22:38.254Z,66.88
2023-01-06T20:25:05.433Z,67.20
2023-01-06T20:27:32.225Z,67.23
2023-01-06T20:29:58.997Z,67.15
2023-01-06T20:32:25.825Z,67.37
2023-01-06T20:34:52.588Z,67.37
2023-01-06T20:37:19.401Z,67.50
2023-01-06T20:39:46.352Z,67.53
2023-01-06T20:42:13.493Z,67.73
2023-01-06T20:44:40.325Z,67.69
2023-01-06T20:47:07.339Z,67.71
2023-01-06T20:49:34.491Z,67.46
2023-01-06T20:52:01.347Z,67.22
2023-01-06T20:54:28.137Z,67.43
2023-01-06T20:56:55.038Z,67.56
2023-01-06T20:59:21.814Z,67.50
2023-01-06T21:01:48.685Z,67.55
2023-01-06T21:04:15.575Z,67.12
2023-01-06T21:06:42.388Z,67.43
2023-01-06T21:09:09.145Z,67.21
2023-01-06T21:11:35.934Z,67.50
2023-01-06T21:14:04.927Z,67.95
2023-01-06T21:16:31.756Z,67.35
2023-01-06T21:18:58.583Z,67.94
2023-01-06T21:21:25.389Z,67.88
2023-01-06T21:23:52.131Z,67.56
2023-01-06T21:26:18.926Z,68.28
2023-01-06T21:28:45.697Z,67.99
2023-01-06T21:31:12.540Z,68.31
2023-01-06T21:33:39.347Z,68.57
2023-01-06T21:36:06.425Z,68.39
2023-01-06T21:38:34.461Z,68.50
2023-01-06T21:41:19.827Z,68.60
2023-01-06T21:43:46.587Z,68.56
2023-01-06T21:46:13.462Z,68.99
2023-01-06T21:48:40.269Z,69.21
2023-01-06T21:51:07.281Z,69.32
2023-01-06T21:53:34.374Z,69.37
2023-01-06T21:56:01.292Z,69.58
2023-01-06T21:58:28.191Z,69.42
2023-01-06T22:00:55.080Z,69.47
2023-01-06T22:03:21.863Z,69.74
2023-01-06T22:05:48.667Z,69.32
2023-01-06T22:08:15.499Z,69.41
2023-01-06T22:10:43.749Z,69.39
2023-01-06T22:13:14.367Z,69.05
2023-01-06T22:15:41.893Z,69.25
2023-01-06T22:18:09.173Z,69.06
2023-01-06T22:20:37.318Z,69.37
2023-01-06T22:23:08.766Z,69.19
2023-01-06T22:25:35.541Z,69.27
2023-01-06T22:28:03.246Z,69.26
2023-01-06T22:30:32.771Z,69.28
2023-01-06T22:32:59.661Z,69.17
2023-01-06T22:35:26.935Z,69.45
2023-01-06T22:37:53.735Z,69.09
2023-01-06T22:40:20.626Z,69.11
2023-01-06T22:42:47.456Z,68.84
2023-01-06T22:45:14.245Z,68.86
2023-01-06T22:47:41.091Z,69.26
2023-01-06T22:50:09.202Z,68.85
2023-01-06T22:52:36.269Z,68.68
2023-01-06T22:55:03.305Z,68.96
2023-01-06T22:57:30.087Z,68.91
2023-01-06T22:59:58.296Z,69.17
2023-01-06T23:02:25.272Z,68.94
2023-01-06T23:04:52.222Z,69.16
2023-01-06T23:07:19.111Z,68.96
2023-01-06T23:09:45.895Z,69.20
2023-01-06T23:12:12.703Z,68.89
2023-01-06T23:14:39.508Z,68.96
2023-01-06T23:17:06.288Z,68.80
2023-01-06T23:19:33.068Z,68.91
2023-01-06T23:21:59.863Z,69.23
2023-01-06T23:24:26.650Z,68.91
2023-01-06T23:26:53.551Z,69.03
2023-01-06T23:29:20.337Z,69.52
2023-01-06T23:31:47.196Z,69.53
2023-01-06T23:34:17.725Z,69.82
2023-01-06T23:36:45.195Z,69.83
2023-01-06T23:39:14.732Z,69.67
2023-01-06T23:41:41.740Z,69.95
2023-01-06T23:44:14.015Z,69.90
2023-01-06T23:46:42.171Z,70.07
2023-01-06T23:49:12.895Z,70.00
2023-01-06T23:51:49.364Z,69.68
2023-01-06T23:54:16.253Z,69.66
2023-01-06T23:56:42.983Z,69.68
2023-01-06T23:59:12.329Z,69.93
